createdAt,value
2022-11-01T00:02:00.637Z,25.23
2022-11-01T00:04:27.334Z,25.05
2022-11-01T00:06:53.957Z,24.48
2022-11-01T00:09:21.231Z,24.46
2022-11-01T00:11:48.194Z,24.40
2022-11-01T00:14:16.717Z,24.25
2022-11-01T00:16:43.738Z,24.74
2022-11-01T00:19:10.434Z,24.13
2022-11-01T00:21:37.707Z,24.88
2022-11-01T00:24:05.036Z,24.91
2022-11-01T00:26:32.015Z,24.70
2022-11-01T00:28:58.611Z,24.84
2022-11-01T00:31:26.138Z,24.87
2022-11-01T00:33:53.034Z,24.99
2022-11-01T00:36:20.038Z,24.26
2022-11-01T00:38:51.408Z,24.76
2022-11-01T00:41:19.420Z,24.86
2022-11-01T00:43:46.416Z,24.14
2022-11-01T00:46:12.961Z,23.95
2022-11-01T00:48:39.572Z,23.77
2022-11-01T00:51:06.120Z,24.23
2022-11-01T00:53:32.936Z,24.27
2022-11-01T00:56:04.595Z,24.64
2022-11-01T00:58:31.480Z,24.00
2022-11-01T01:00:58.752Z,23.49
2022-11-01T01:03:26.163Z,23.92
2022-11-01T01:05:54.194Z,24.15
2022-11-01T01:08:22.210Z,25.01
2022-11-01T01:10:48.923Z,24.95
2022-11-01T01:13:16.322Z,24.17
2022-11-01T01:15:42.905Z,23.95
2022-11-01T01:18:09.814Z,24.10
2022-11-01T01:20:36.690Z,23.87
2022-11-01T01:23:04.134Z,24.32
2022-11-01T01:25:30.706Z,24.11
2022-11-01T01:27:57.659Z,24.52
2022-11-01T01:30:24.244Z,25.16
2022-11-01T01:32:51.361Z,24.45
2022-11-01T01:35:17.932Z,25.00
2022-11-01T01:37:44.488Z,25.33
2022-11-01T01:40:11.318Z,24.14
2022-11-01T01:42:40.914Z,24.45
2022-11-01T01:45:19.319Z,25.04
2022-11-01T01:47:49.772Z,25.09
2022-11-01T01:50:39.520Z,24.55
2022-11-01T01:53:15.818Z,25.31
2022-11-01T01:56:14.205Z,25.59
2022-11-01T01:58:50.028Z,25.54
2022-11-01T02:01:16.912Z,25.84
2022-11-01T02:03:44.408Z,25.72
2022-11-01T02:06:14.371Z,26.05
2022-11-01T02:08:57.199Z,26.01
2022-11-01T02:11:23.949Z,25.51
2022-11-01T02:13:51.049Z,25.41
2022-11-01T02:16:35.515Z,25.31
2022-11-01T02:19:04.851Z,24.83
2022-11-01T02:21:51.289Z,24.92
2022-11-01T02:24:39.222Z,25.60
2022-11-01T02:27:14.869Z,25.82
2022-11-01T02:30:00.696Z,25.45
2022-11-01T02:32:49.456Z,25.44
2022-11-01T02:35:20.444Z,25.47
2022-11-01T02:38:01.391Z,25.63
2022-11-01T02:40:46.729Z,25.97
2022-11-01T02:43:20.760Z,25.53
2022-11-01T02:45:50.925Z,26.39
2022-11-01T02:48:23.009Z,26.96
2022-11-01T02:50:55.090Z,26.91
2022-11-01T02:53:22.663Z,26.42
2022-11-01T02:55:53.339Z,27.11
2022-11-01T02:58:25.652Z,26.63
2022-11-01T03:00:52.469Z,26.56
2022-11-01T03:03:39.570Z,26.36
2022-11-01T03:06:26.632Z,26.33
2022-11-01T03:09:00.645Z,25.81
2022-11-01T03:11:41.261Z,25.46
2022-11-01T03:14:13.660Z,26.17
2022-11-01T03:16:54.125Z,26.41
2022-11-01T03:19:43.509Z,25.60
2022-11-01T03:22:15.844Z,25.31
2022-11-01T03:24:45.182Z,25.08
2022-11-01T03:27:26.281Z,24.74
2022-11-01T03:30:00.816Z,25.12
2022-11-01T03:32:34.625Z,25.11
2022-11-01T03:35:03.914Z,25.11
2022-11-01T03:37:32.883Z,24.54
2022-11-01T03:40:04.386Z,24.67
2022-11-01T03:42:32.385Z,24.00
2022-11-01T03:45:05.797Z,24.36
2022-11-01T03:47:32.461Z,23.58
2022-11-01T03:50:12.416Z,24.42
2022-11-01T03:52:39.057Z,24.07
2022-11-01T03:55:18.083Z,24.68
2022-11-01T03:57:52.229Z,24.28
2022-11-01T04:00:21.702Z,24.87
2022-11-01T04:02:49.485Z,24.77
2022-11-01T04:05:16.696Z,24.06
2022-11-01T04:07:44.302Z,24.48
2022-11-01T04:10:11.890Z,24.81
2022-11-01T04:12:38.667Z,24.12
2022-11-01T04:15:24.948Z,24.25
2022-11-01T04:18:25.039Z,24.65
2022-11-01T04:20:53.300Z,24.49
2022-11-01T04:23:20.017Z,24.52
2022-11-01T04:25:47.126Z,24.29
2022-11-01T04:28:15.050Z,24.65
2022-11-01T04:30:42.321Z,24.82
2022-11-01T04:33:09.369Z,24.78
2022-11-01T04:35:38.064Z,24.37
2022-11-01T04:38:06.195Z,24.89
2022-11-01T04:40:34.325Z,25.03
2022-11-01T04:43:00.925Z,24.88
2022-11-01T04:45:27.968Z,24.58
2022-11-01T04:48:15.860Z,24.78
2022-11-01T04:50:43.438Z,24.08
2022-11-01T04:53:10.351Z,23.81
2022-11-01T04:55:36.991Z,24.25
2022-11-01T04:58:04.455Z,24.68
2022-11-01T05:00:33.166Z,24.77
2022-11-01T05:03:02.538Z,24.08
2022-11-01T05:05:30.085Z,24.89
2022-11-01T05:08:07.514Z,24.53
2022-11-01T05:10:35.825Z,24.54
2022-11-01T05:13:03.570Z,23.90
2022-11-01T05:15:30.674Z,23.96
2022-11-01T05:17:58.005Z,24.28
2022-11-01T05:20:25.019Z,24.72
2022-11-01T05:22:51.931Z,24.97
2022-11-01T05:25:18.477Z,24.72
2022-11-01T05:27:45.068Z,24.83
2022-11-01T05:30:12.495Z,25.25
2022-11-01T05:32:39.044Z,25.11
2022-11-01T05:35:06.734Z,25.01
2022-11-01T05:37:35.713Z,25.38
2022-11-01T05:40:03.198Z,25.57
2022-11-01T05:42:29.769Z,25.03
2022-11-01T05:44:56.329Z,24.67
2022-11-01T05:47:22.874Z,24.63
2022-11-01T05:49:49.402Z,24.67
2022-11-01T05:52:16.320Z,24.47
2022-11-01T05:54:42.876Z,24.67
2022-11-01T05:57:09.424Z,25.15
2022-11-01T05:59:35.961Z,24.97
2022-11-01T06:02:02.712Z,25.52
2022-11-01T06:04:29.338Z,25.05
2022-11-01T06:06:55.867Z,25.19
2022-11-01T06:09:22.716Z,25.78
2022-11-01T06:11:49.647Z,26.16
2022-11-01T06:14:16.370Z,26.15
2022-11-01T06:16:44.335Z,26.19
2022-11-01T06:19:10.914Z,26.01
2022-11-01T06:21:37.506Z,25.74
2022-11-01T06:24:04.235Z,25.82
2022-11-01T06:26:30.815Z,25.74
2022-11-01T06:29:00.388Z,26.36
2022-11-01T06:31:26.935Z,26.36
2022-11-01T06:33:53.537Z,25.76
2022-11-01T06:36:20.346Z,25.76
2022-11-01T06:38:47.181Z,25.66
2022-11-01T06:41:14.109Z,25.95
2022-11-01T06:43:40.978Z,25.47
2022-11-01T06:46:07.935Z,25.41
2022-11-01T06:48:34.485Z,25.57
2022-11-01T06:51:04.705Z,24.89
2022-11-01T06:53:31.433Z,25.19
2022-11-01T06:55:59.626Z,25.53
2022-11-01T06:58:26.586Z,25.96
2022-11-01T07:00:53.285Z,26.10
2022-11-01T07:03:19.980Z,26.07
2022-11-01T07:05:48.230Z,25.87
2022-11-01T07:08:14.772Z,26.09
2022-11-01T07:10:43.206Z,25.85
2022-11-01T07:13:13.063Z,26.34
2022-11-01T07:15:40.185Z,26.07
2022-11-01T07:18:08.503Z,25.90
2022-11-01T07:20:41.859Z,26.47
2022-11-01T07:23:12.752Z,26.47
2022-11-01T07:25:40.054Z,26.68
2022-11-01T07:28:07.217Z,26.71
2022-11-01T07:30:33.789Z,26.82
2022-11-01T07:33:03.433Z,26.87
2022-11-01T07:35:30.387Z,26.73
2022-11-01T07:37:59.374Z,26.76
2022-11-01T07:40:27.946Z,27.00
2022-11-01T07:42:56.989Z,27.20
2022-11-01T07:45:24.516Z,26.91
2022-11-01T07:47:51.393Z,27.52
2022-11-01T07:50:19.287Z,27.18
2022-11-01T07:52:45.914Z,28.27
2022-11-01T07:55:12.461Z,27.92
2022-11-01T07:57:40.120Z,27.65
2022-11-01T08:00:12.421Z,27.09
2022-11-01T08:02:39.113Z,27.45
2022-11-01T08:05:06.343Z,26.90
2022-11-01T08:07:38.881Z,27.81
2022-11-01T08:10:07.445Z,27.46
2022-11-01T08:12:34.751Z,27.74
2022-11-01T08:15:02.466Z,27.67
2022-11-01T08:17:30.058Z,28.00
2022-11-01T08:19:57.087Z,27.76
2022-11-01T08:22:23.693Z,28.36
2022-11-01T08:24:50.297Z,27.51
2022-11-01T08:27:16.838Z,28.35
2022-11-01T08:29:43.393Z,28.19
2022-11-01T08:32:09.959Z,28.58
2022-11-01T08:34:36.562Z,28.90
2022-11-01T08:37:03.108Z,28.77
2022-11-01T08:39:29.990Z,29.42
2022-11-01T08:41:59.229Z,29.38
2022-11-01T08:44:25.810Z,29.62
2022-11-01T08:46:55.018Z,29.38
2022-11-01T08:49:21.609Z,29.15
2022-11-01T08:51:48.173Z,29.18
2022-11-01T08:54:14.794Z,29.57
2022-11-01T08:56:41.331Z,29.44
2022-11-01T08:59:08.241Z,29.56
2022-11-01T09:01:36.272Z,29.96
2022-11-01T09:04:03.570Z,29.79
2022-11-01T09:06:33.784Z,30.02
2022-11-01T09:09:03.644Z,29.55
2022-11-01T09:11:31.041Z,29.54
2022-11-01T09:14:01.173Z,30.05
2022-11-01T09:16:27.990Z,28.07
2022-11-01T09:18:54.560Z,28.77
2022-11-01T09:21:21.325Z,29.45
2022-11-01T09:23:47.960Z,29.15
2022-11-01T09:26:14.591Z,29.33
2022-11-01T09:28:41.244Z,29.36
2022-11-01T09:31:26.108Z,29.41
2022-11-01T09:33:57.359Z,29.08
2022-11-01T09:36:25.165Z,30.06
2022-11-01T09:38:51.755Z,29.38
2022-11-01T09:41:21.226Z,28.68
2022-11-01T09:43:48.650Z,28.31
2022-11-01T09:46:18.974Z,28.57
2022-11-01T09:48:46.537Z,28.11
2022-11-01T09:51:20.066Z,28.91
2022-11-01T09:53:49.500Z,28.04
2022-11-01T09:56:30.504Z,29.48
2022-11-01T09:59:38.582Z,28.33
2022-11-01T10:02:37.560Z,28.61
2022-11-01T10:05:18.839Z,27.73
2022-11-01T10:07:54.486Z,28.16
2022-11-01T10:10:39.950Z,28.53
2022-11-01T10:13:39.151Z,28.79
2022-11-01T10:16:44.404Z,28.79
2022-11-01T10:19:18.001Z,31.45
2022-11-01T10:21:51.245Z,32.39
2022-11-01T10:24:21.998Z,32.80
2022-11-01T10:26:53.904Z,33.14
2022-11-01T10:29:51.885Z,33.93
2022-11-01T10:32:24.455Z,34.14
2022-11-01T10:34:54.665Z,35.39
2022-11-01T10:37:35.277Z,34.02
2022-11-01T10:40:08.397Z,33.44
2022-11-01T10:42:37.409Z,33.50
2022-11-01T10:45:10.166Z,33.99
2022-11-01T10:47:37.114Z,34.18
2022-11-01T10:50:07.848Z,33.04
2022-11-01T10:52:52.305Z,32.00
2022-11-01T10:55:26.638Z,32.75
2022-11-01T10:58:06.631Z,32.24
2022-11-01T11:00:38.623Z,32.12
2022-11-01T11:03:21.284Z,31.34
2022-11-01T11:05:49.328Z,30.99
2022-11-01T11:08:18.686Z,31.10
2022-11-01T11:10:45.914Z,31.64
2022-11-01T11:13:20.767Z,30.69
2022-11-01T11:16:00.591Z,30.38
2022-11-01T11:18:30.484Z,30.05
2022-11-01T11:21:00.271Z,29.95
2022-11-01T11:23:33.906Z,30.71
2022-11-01T11:26:03.521Z,30.31
2022-11-01T11:28:33.489Z,29.67
2022-11-01T11:31:14.569Z,29.34
2022-11-01T11:33:50.402Z,29.34
2022-11-01T11:36:18.474Z,29.84
2022-11-01T11:38:47.954Z,29.97
2022-11-01T11:41:39.621Z,30.46
2022-11-01T11:44:34.812Z,30.69
2022-11-01T11:47:03.105Z,30.56
2022-11-01T11:49:30.069Z,30.12
2022-11-01T11:51:57.047Z,30.51
2022-11-01T11:54:31.386Z,30.38
2022-11-01T11:57:11.462Z,29.66
2022-11-01T11:59:39.258Z,30.27
2022-11-01T12:02:20.112Z,28.90
2022-11-01T12:04:54.718Z,29.37
2022-11-01T12:07:34.220Z,29.43
2022-11-01T12:10:04.206Z,29.22
2022-11-01T12:12:40.549Z,29.20
2022-11-01T12:15:29.459Z,30.11
2022-11-01T12:17:56.898Z,30.70
2022-11-01T12:20:26.149Z,31.29
2022-11-01T12:23:10.734Z,30.81
2022-11-01T12:25:39.639Z,31.08
2022-11-01T12:28:17.035Z,31.05
2022-11-01T12:30:44.506Z,31.21
2022-11-01T12:33:18.805Z,29.80
2022-11-01T12:35:47.667Z,30.41
2022-11-01T12:38:39.809Z,30.13
2022-11-01T12:41:41.518Z,30.16
2022-11-01T12:44:33.036Z,30.24
2022-11-01T12:47:15.006Z,30.25
2022-11-01T12:49:53.270Z,30.99
2022-11-01T12:52:39.807Z,31.24
2022-11-01T12:55:19.754Z,30.36
2022-11-01T12:57:48.178Z,30.65
2022-11-01T13:00:17.201Z,31.04
2022-11-01T13:03:05.487Z,30.82
2022-11-01T13:05:45.581Z,31.67
2022-11-01T13:08:24.183Z,31.71
2022-11-01T13:10:51.559Z,30.98
2022-11-01T13:13:23.929Z,31.18
2022-11-01T13:16:03.693Z,31.01
2022-11-01T13:18:53.247Z,31.16
2022-11-01T13:21:44.064Z,31.83
2022-11-01T13:24:37.542Z,31.25
2022-11-01T13:27:22.060Z,31.38
2022-11-01T13:30:05.417Z,31.55
2022-11-01T13:32:59.212Z,31.67
2022-11-01T13:35:47.999Z,31.98
2022-11-01T13:38:33.133Z,31.63
2022-11-01T13:41:40.105Z,31.53
2022-11-01T13:44:14.357Z,31.63
2022-11-01T13:46:50.083Z,31.48
2022-11-01T13:49:41.569Z,31.57
2022-11-01T13:52:28.875Z,31.94
2022-11-01T13:54:59.503Z,31.39
2022-11-01T13:57:27.068Z,31.71
2022-11-01T13:59:57.108Z,31.12
2022-11-01T14:02:23.843Z,31.56
2022-11-01T14:04:58.318Z,31.44
2022-11-01T14:07:26.412Z,31.84
2022-11-01T14:09:54.763Z,32.49
2022-11-01T14:12:38.146Z,31.63
2022-11-01T14:15:18.676Z,31.21
2022-11-01T14:18:04.073Z,31.65
2022-11-01T14:20:33.733Z,31.99
2022-11-01T14:23:28.881Z,32.40
2022-11-01T14:26:16.976Z,31.98
2022-11-01T14:28:45.750Z,31.85
2022-11-01T14:31:18.046Z,31.57
2022-11-01T14:33:48.682Z,32.33
2022-11-01T14:36:19.451Z,32.28
2022-11-01T14:38:52.360Z,31.41
2022-11-01T14:41:20.436Z,32.17
2022-11-01T14:43:54.471Z,32.20
2022-11-01T14:46:26.834Z,31.81
2022-11-01T14:49:20.880Z,31.86
2022-11-01T14:51:57.922Z,31.68
2022-11-01T14:54:36.439Z,31.37
2022-11-01T14:57:03.937Z,31.20
2022-11-01T14:59:32.598Z,31.15
2022-11-01T15:02:03.246Z,31.32
2022-11-01T15:04:45.951Z,31.17
2022-11-01T15:07:30.637Z,31.38
2022-11-01T15:10:09.671Z,29.89
2022-11-01T15:13:02.451Z,30.31
2022-11-01T15:15:33.583Z,30.41
2022-11-01T15:18:05.195Z,29.52
2022-11-01T15:20:38.676Z,30.19
2022-11-01T15:23:09.943Z,29.23
2022-11-01T15:25:36.729Z,29.34
2022-11-01T15:28:03.448Z,30.12
2022-11-01T15:30:34.201Z,29.62
2022-11-01T15:33:20.582Z,29.31
2022-11-01T15:35:59.450Z,29.60
2022-11-01T15:38:27.463Z,29.38
2022-11-01T15:40:54.299Z,29.95
2022-11-01T15:43:25.021Z,30.18
2022-11-01T15:45:56.495Z,30.33
2022-11-01T15:48:27.164Z,30.48
2022-11-01T15:50:59.380Z,30.45
2022-11-01T15:53:30.271Z,30.70
2022-11-01T15:56:20.226Z,30.76
2022-11-01T15:58:57.202Z,30.57
2022-11-01T16:01:24.506Z,30.69
2022-11-01T16:04:03.506Z,30.64
2022-11-01T16:06:40.968Z,30.28
2022-11-01T16:09:19.527Z,30.39
2022-11-01T16:11:48.338Z,30.40
2022-11-01T16:14:37.635Z,30.32
2022-11-01T16:17:23.118Z,30.04
2022-11-01T16:19:51.536Z,29.89
2022-11-01T16:22:28.743Z,29.44
2022-11-01T16:25:25.189Z,29.68
2022-11-01T16:28:08.557Z,29.59
2022-11-01T16:30:52.275Z,29.36
2022-11-01T16:33:42.122Z,29.05
2022-11-01T16:38:51.887Z,28.47
2022-11-01T16:41:28.828Z,28.43
2022-11-01T16:43:59.097Z,28.43
2022-11-01T16:46:29.162Z,28.33
2022-11-01T16:49:00.895Z,28.05
2022-11-01T16:51:30.203Z,28.09
2022-11-01T16:53:59.179Z,27.74
2022-11-01T16:56:36.592Z,27.38
2022-11-01T16:59:25.933Z,27.68
2022-11-01T17:01:55.513Z,26.04
2022-11-01T17:04:22.636Z,26.17
2022-11-01T17:06:50.398Z,26.62
2022-11-01T17:09:18.884Z,27.34
2022-11-01T17:11:50.735Z,27.24
2022-11-01T17:14:18.361Z,27.35
2022-11-01T17:16:47.185Z,27.76
2022-11-01T17:19:23.003Z,27.71
2022-11-01T17:21:51.688Z,27.40
2022-11-01T17:24:21.490Z,27.01
2022-11-01T17:26:50.178Z,26.59
2022-11-01T17:29:16.759Z,27.38
2022-11-01T17:31:43.320Z,27.56
2022-11-01T17:34:09.848Z,27.78
2022-11-01T17:36:38.510Z,28.02
2022-11-01T17:39:05.325Z,27.93
2022-11-01T17:41:33.081Z,27.73
2022-11-01T17:44:00.038Z,27.48
2022-11-01T17:46:27.112Z,27.69
2022-11-01T17:48:53.734Z,27.96
2022-11-01T17:51:20.393Z,28.01
2022-11-01T17:53:47.360Z,27.75
2022-11-01T17:56:15.122Z,27.88
2022-11-01T17:58:42.101Z,27.98
2022-11-01T18:01:08.794Z,27.48
2022-11-01T18:03:36.069Z,27.21
2022-11-01T18:06:03.016Z,27.32
2022-11-01T18:08:34.045Z,27.22
2022-11-01T18:11:05.523Z,27.26
2022-11-01T18:14:04.120Z,26.70
2022-11-01T18:17:00.288Z,26.67
2022-11-01T18:19:35.547Z,26.07
2022-11-01T18:22:09.502Z,25.64
2022-11-01T18:24:46.616Z,25.92
2022-11-01T18:27:14.711Z,26.27
2022-11-01T18:29:47.045Z,26.34
2022-11-01T18:32:28.483Z,26.19
2022-11-01T18:35:05.504Z,25.64
2022-11-01T18:37:55.807Z,25.67
2022-11-01T18:40:32.522Z,25.43
2022-11-01T18:42:59.720Z,25.41
2022-11-01T18:45:33.032Z,25.59
2022-11-01T18:48:27.426Z,26.05
2022-11-01T18:51:05.036Z,26.21
2022-11-01T18:53:35.112Z,26.58
2022-11-01T18:56:38.127Z,26.37
2022-11-01T18:59:12.772Z,26.42
2022-11-01T19:01:40.635Z,26.11
2022-11-01T19:04:13.203Z,26.27
2022-11-01T19:06:39.950Z,26.22
2022-11-01T19:09:21.566Z,26.17
2022-11-01T19:11:55.172Z,25.68
2022-11-01T19:14:22.600Z,25.40
2022-11-01T19:16:50.361Z,25.13
2022-11-01T19:19:19.810Z,25.86
2022-11-01T19:21:47.422Z,25.46
2022-11-01T19:24:35.999Z,26.11
2022-11-01T19:27:14.880Z,25.28
2022-11-01T19:29:41.930Z,25.75
2022-11-01T19:32:13.672Z,26.01
2022-11-01T19:34:41.248Z,25.18
2022-11-01T19:37:33.039Z,23.98
2022-11-01T19:40:12.650Z,24.15
2022-11-01T19:42:39.386Z,24.11
2022-11-01T19:45:09.098Z,23.80
2022-11-01T19:47:39.750Z,24.93
2022-11-01T19:50:18.662Z,25.51
2022-11-01T19:52:47.587Z,25.68
2022-11-01T19:55:36.701Z,25.03
2022-11-01T19:58:24.758Z,24.22
2022-11-01T20:01:02.803Z,23.94
2022-11-01T20:03:57.884Z,24.00
2022-11-01T20:06:29.192Z,23.62
2022-11-01T20:09:03.307Z,23.78
2022-11-01T20:11:31.717Z,23.40
2022-11-01T20:13:58.679Z,23.66
2022-11-01T20:16:25.412Z,23.64
2022-11-01T20:18:52.453Z,24.05
2022-11-01T20:21:19.238Z,23.62
2022-11-01T20:23:45.997Z,24.16
2022-11-01T20:26:12.814Z,24.46
2022-11-01T20:28:39.578Z,24.54
2022-11-01T20:31:06.447Z,24.41
2022-11-01T20:33:33.180Z,24.76
2022-11-01T20:36:00.238Z,23.77
2022-11-01T20:38:27.036Z,23.60
2022-11-01T20:40:53.779Z,23.22
2022-11-01T20:43:21.218Z,22.83
2022-11-01T20:45:47.986Z,22.84
2022-11-01T20:48:14.674Z,23.78
2022-11-01T20:50:41.464Z,24.32
2022-11-01T20:53:08.459Z,24.17
2022-11-01T20:55:35.546Z,24.71
2022-11-01T20:58:03.777Z,24.81
2022-11-01T21:00:32.136Z,25.30
2022-11-01T21:03:01.726Z,25.12
2022-11-01T21:05:30.654Z,25.17
2022-11-01T21:08:14.739Z,25.41
2022-11-01T21:10:42.616Z,25.61
2022-11-01T21:13:23.967Z,25.40
2022-11-01T21:15:52.173Z,25.72
2022-11-01T21:18:18.841Z,25.25
2022-11-01T21:20:47.968Z,25.47
2022-11-01T21:23:35.394Z,25.43
2022-11-01T21:26:17.333Z,24.86
2022-11-01T21:28:48.952Z,24.84
2022-11-01T21:31:15.576Z,24.50
2022-11-01T21:33:54.088Z,24.66
2022-11-01T21:36:20.752Z,24.60
2022-11-01T21:38:48.898Z,24.66
2022-11-01T21:41:24.485Z,25.00
2022-11-01T21:43:51.827Z,24.09
2022-11-01T21:46:23.576Z,23.97
2022-11-01T21:48:53.933Z,24.36
2022-11-01T21:51:20.503Z,24.11
2022-11-01T21:53:47.174Z,24.16
2022-11-01T21:56:13.795Z,24.17
2022-11-01T21:58:40.367Z,23.86
2022-11-01T22:01:08.059Z,23.32
2022-11-01T22:03:34.686Z,23.48
2022-11-01T22:06:01.330Z,23.29
2022-11-01T22:08:28.139Z,24.17
2022-11-01T22:10:54.741Z,24.28
2022-11-01T22:13:21.328Z,23.83
2022-11-01T22:15:48.174Z,24.17
2022-11-01T22:18:14.744Z,24.24
2022-11-01T22:20:41.766Z,24.77
2022-11-01T22:23:08.500Z,24.34
2022-11-01T22:25:35.042Z,24.56
2022-11-01T22:28:02.177Z,24.79
2022-11-01T22:30:28.812Z,24.79
2022-11-01T22:32:55.392Z,24.89
2022-11-01T22:35:21.989Z,25.14
2022-11-01T22:37:48.577Z,24.89
2022-11-01T22:40:16.703Z,24.18
2022-11-01T22:42:43.323Z,24.51
2022-11-01T22:45:15.776Z,24.71
2022-11-01T22:47:42.965Z,24.73
2022-11-01T22:50:18.983Z,24.73
2022-11-01T22:52:48.428Z,25.00
2022-11-01T22:55:23.059Z,25.21
2022-11-01T22:58:22.063Z,24.50
2022-11-01T23:00:50.021Z,24.78
2022-11-01T23:03:27.336Z,24.67
2022-11-01T23:05:57.569Z,24.70
2022-11-01T23:08:33.198Z,25.10
2022-11-01T23:11:00.821Z,25.01
2022-11-01T23:13:51.793Z,24.65
2022-11-01T23:16:33.702Z,23.73
2022-11-01T23:19:02.201Z,24.71
2022-11-01T23:21:29.404Z,25.19
2022-11-01T23:23:56.211Z,24.98
2022-11-01T23:26:24.142Z,24.37
2022-11-01T23:28:56.205Z,25.02
2022-11-01T23:31:28.086Z,24.94
2022-11-01T23:33:55.114Z,24.94
2022-11-01T23:36:30.379Z,23.88
2022-11-01T23:41:28.007Z,24.07
2022-11-01T23:43:57.000Z,24.28
2022-11-01T23:46:25.824Z,25.00
2022-11-01T23:49:02.008Z,25.17
2022-11-01T23:51:30.983Z,25.20
2022-11-01T23:53:58.451Z,25.19
2022-11-01T23:56:25.006Z,24.93
2022-11-01T23:59:00.598Z,25.04
